createdAt,value
2019-03-30T00:01:01.111Z,14.03
2019-03-30T00:03:28.376Z,13.90
2019-03-30T00:05:55.648Z,14.10
2019-03-30T00:08:22.949Z,14.53
2019-03-30T00:10:50.219Z,13.73
2019-03-30T00:13:17.565Z,12.80
2019-03-30T00:15:44.875Z,14.20
2019-03-30T00:18:12.144Z,13.83
2019-03-30T00:20:39.441Z,13.10
2019-03-30T00:23:06.753Z,13.27
2019-03-30T00:25:34.025Z,13.40
2019-03-30T00:28:01.309Z,13.80
2019-03-30T00:30:28.633Z,13.70
2019-03-30T00:32:55.912Z,13.20
2019-03-30T00:35:23.192Z,12.77
2019-03-30T00:37:50.561Z,14.57
2019-03-30T00:40:17.836Z,13.20
2019-03-30T00:42:45.120Z,14.70
2019-03-30T00:45:12.900Z,14.63
2019-03-30T00:47:40.180Z,12.60
2019-03-30T00:50:07.522Z,12.97
2019-03-30T00:52:34.845Z,14.17
2019-03-30T00:55:02.119Z,14.10
2019-03-30T00:57:29.398Z,13.00
2019-03-30T00:59:56.690Z,12.20
2019-03-30T01:02:24.044Z,12.23
2019-03-30T01:04:51.319Z,12.10
2019-03-30T01:07:18.892Z,14.57
2019-03-30T01:09:46.168Z,14.20
2019-03-30T01:12:13.443Z,13.83
2019-03-30T01:14:40.735Z,14.07
2019-03-30T01:17:08.076Z,13.10
2019-03-30T01:19:35.354Z,13.07
2019-03-30T01:22:02.677Z,13.80
2019-03-30T01:24:30.022Z,13.07
2019-03-30T01:26:57.300Z,12.87
2019-03-30T01:29:24.676Z,13.30
2019-03-30T01:31:51.956Z,13.77
2019-03-30T01:34:19.309Z,13.47
2019-03-30T01:36:46.705Z,15.07
2019-03-30T01:39:14.041Z,13.90
2019-03-30T01:41:41.312Z,13.37
2019-03-30T01:44:08.617Z,12.20
2019-03-30T01:46:35.897Z,13.67
2019-03-30T01:49:03.262Z,13.20
2019-03-30T01:51:30.584Z,13.20
2019-03-30T01:53:57.862Z,12.27
2019-03-30T01:56:25.140Z,12.70
2019-03-30T01:58:52.452Z,13.53
2019-03-30T02:01:19.737Z,13.20
2019-03-30T02:03:47.084Z,13.97
2019-03-30T02:06:14.395Z,13.67
2019-03-30T02:08:41.679Z,12.70
2019-03-30T02:11:08.982Z,13.13
2019-03-30T02:13:36.345Z,14.30
2019-03-30T02:16:03.625Z,13.60
2019-03-30T02:18:30.904Z,12.97
2019-03-30T02:20:58.221Z,13.57
2019-03-30T02:23:25.498Z,13.70
2019-03-30T02:25:52.867Z,14.30
2019-03-30T02:28:20.349Z,12.93
2019-03-30T02:30:47.621Z,13.33
2019-03-30T02:33:14.898Z,12.97
2019-03-30T02:35:42.200Z,13.10
2019-03-30T02:38:09.486Z,13.90
2019-03-30T02:40:36.841Z,12.67
2019-03-30T02:43:04.142Z,12.50
2019-03-30T02:45:31.410Z,12.60
2019-03-30T02:47:58.686Z,13.67
2019-03-30T02:50:26.006Z,14.30
2019-03-30T02:52:53.364Z,12.70
2019-03-30T02:55:20.639Z,13.43
2019-03-30T02:57:47.948Z,14.07
2019-03-30T03:00:15.938Z,13.97
2019-03-30T03:02:43.210Z,13.40
2019-03-30T03:05:10.696Z,13.70
2019-03-30T03:07:38.046Z,13.67
2019-03-30T03:10:05.888Z,14.30
2019-03-30T03:12:33.262Z,12.60
2019-03-30T03:15:00.628Z,14.83
2019-03-30T03:17:27.991Z,12.47
2019-03-30T03:19:55.387Z,13.20
2019-03-30T03:22:22.738Z,14.03
2019-03-30T03:24:50.089Z,13.83
2019-03-30T03:27:17.474Z,14.57
2019-03-30T03:29:44.749Z,14.13
2019-03-30T03:32:12.020Z,14.90
2019-03-30T03:34:39.479Z,13.80
2019-03-30T03:37:06.829Z,14.03
2019-03-30T03:39:34.123Z,14.83
2019-03-30T03:42:01.499Z,12.80
2019-03-30T03:44:28.843Z,12.00
2019-03-30T03:46:56.125Z,12.57
2019-03-30T03:49:23.433Z,14.60
2019-03-30T03:51:50.706Z,14.53
2019-03-30T03:54:18.154Z,14.13
2019-03-30T03:56:47.014Z,13.00
2019-03-30T03:59:14.941Z,13.30
2019-03-30T04:01:43.789Z,13.83
2019-03-30T04:04:12.437Z,14.03
2019-03-30T04:06:40.882Z,14.53
2019-03-30T04:09:08.162Z,13.20
2019-03-30T04:11:37.125Z,14.43
2019-03-30T04:14:04.408Z,13.73
2019-03-30T04:16:31.752Z,13.07
2019-03-30T04:18:59.089Z,14.03
2019-03-30T04:21:42.921Z,13.60
2019-03-30T04:23:55.380Z,13.47
2019-03-30T04:26:22.752Z,14.90
2019-03-30T04:28:50.027Z,14.50
2019-03-30T04:31:17.305Z,14.10
2019-03-30T04:33:44.681Z,12.77
2019-03-30T04:36:11.959Z,14.57
2019-03-30T04:38:39.238Z,13.23
2019-03-30T04:41:06.562Z,13.43
2019-03-30T04:43:33.915Z,13.77
2019-03-30T04:46:01.193Z,14.33
2019-03-30T04:48:29.660Z,13.30
2019-03-30T04:50:57.140Z,14.07
2019-03-30T04:53:24.428Z,15.47
2019-03-30T04:55:51.741Z,15.00
2019-03-30T04:58:19.028Z,12.90
2019-03-30T05:00:46.293Z,15.70
2019-03-30T05:03:13.625Z,14.50
2019-03-30T05:05:42.999Z,15.80
2019-03-30T05:08:09.898Z,14.40
2019-03-30T05:10:37.201Z,13.70
2019-03-30T05:13:04.497Z,14.90
2019-03-30T05:15:31.869Z,13.43
2019-03-30T05:17:59.321Z,14.17
2019-03-30T05:20:26.590Z,14.10
2019-03-30T05:22:53.880Z,14.67
2019-03-30T05:25:21.259Z,16.40
2019-03-30T05:27:48.553Z,17.63
2019-03-30T05:30:15.979Z,13.83
2019-03-30T05:32:43.294Z,15.37
2019-03-30T05:35:10.638Z,15.80
2019-03-30T05:37:37.915Z,13.40
2019-03-30T05:40:10.976Z,14.67
2019-03-30T05:42:38.331Z,14.10
2019-03-30T05:45:06.785Z,15.13
2019-03-30T05:47:34.174Z,15.30
2019-03-30T05:50:01.461Z,15.30
2019-03-30T05:52:28.801Z,15.53
2019-03-30T05:54:56.125Z,14.40
2019-03-30T05:57:23.396Z,14.73
2019-03-30T05:59:50.669Z,13.83
2019-03-30T06:02:17.969Z,15.80
2019-03-30T06:04:45.244Z,15.00
2019-03-30T06:07:12.516Z,15.57
2019-03-30T06:09:39.817Z,14.97
2019-03-30T06:12:07.093Z,15.43
2019-03-30T06:14:34.392Z,15.10
2019-03-30T06:17:01.712Z,15.40
2019-03-30T06:19:28.985Z,16.23
2019-03-30T06:21:56.276Z,14.67
2019-03-30T06:24:23.653Z,16.57
2019-03-30T06:26:50.929Z,14.70
2019-03-30T06:29:18.205Z,15.97
2019-03-30T06:31:46.863Z,15.83
2019-03-30T06:34:14.482Z,14.50
2019-03-30T06:36:41.796Z,14.70
2019-03-30T06:39:09.110Z,17.43
2019-03-30T06:41:36.393Z,15.30
2019-03-30T06:44:03.814Z,14.90
2019-03-30T06:46:31.352Z,15.27
2019-03-30T06:48:58.639Z,16.27
2019-03-30T06:51:33.888Z,15.03
2019-03-30T06:54:01.272Z,17.17
2019-03-30T06:56:28.556Z,14.87
2019-03-30T06:58:55.909Z,14.47
2019-03-30T07:01:23.478Z,14.23
2019-03-30T07:03:50.765Z,15.70
2019-03-30T07:06:19.273Z,16.87
2019-03-30T07:08:47.548Z,24.07
2019-03-30T07:11:21.321Z,20.33
2019-03-30T07:13:47.721Z,17.70
2019-03-30T07:16:17.792Z,19.30
2019-03-30T07:18:45.276Z,19.10
2019-03-30T07:21:12.557Z,16.07
2019-03-30T07:23:39.897Z,15.40
2019-03-30T07:26:07.171Z,15.33
2019-03-30T07:28:34.449Z,15.20
2019-03-30T07:31:01.803Z,14.77
2019-03-30T07:33:29.086Z,14.53
2019-03-30T07:35:56.361Z,14.20
2019-03-30T07:38:23.745Z,14.33
2019-03-30T07:40:51.053Z,13.53
2019-03-30T07:43:18.416Z,15.20
2019-03-30T07:45:47.366Z,15.23
2019-03-30T07:48:14.650Z,14.10
2019-03-30T07:50:42.053Z,15.20
2019-03-30T07:53:09.436Z,14.50
2019-03-30T07:55:36.721Z,15.40
2019-03-30T07:58:04.099Z,15.30
2019-03-30T08:00:31.491Z,14.73
2019-03-30T08:02:58.767Z,15.20
2019-03-30T08:05:26.120Z,14.10
2019-03-30T08:07:53.417Z,14.93
2019-03-30T08:10:20.756Z,16.47
2019-03-30T08:12:48.029Z,15.80
2019-03-30T08:15:15.407Z,14.90
2019-03-30T08:17:42.677Z,15.23
2019-03-30T08:20:10.025Z,15.70
2019-03-30T08:22:37.608Z,14.43
2019-03-30T08:25:05.859Z,16.53
2019-03-30T08:27:33.128Z,14.30
2019-03-30T08:30:00.521Z,14.90
2019-03-30T08:32:27.794Z,15.57
2019-03-30T08:34:55.068Z,15.63
2019-03-30T08:37:22.379Z,16.40
2019-03-30T08:39:50.225Z,15.93
2019-03-30T08:42:17.505Z,15.33
2019-03-30T08:44:44.817Z,15.90
2019-03-30T08:47:12.087Z,16.03
2019-03-30T08:49:39.368Z,15.70
2019-03-30T08:52:06.670Z,14.00
2019-03-30T08:54:33.941Z,16.00
2019-03-30T08:57:01.208Z,13.67
2019-03-30T08:59:28.524Z,14.80
2019-03-30T09:01:55.801Z,16.60
2019-03-30T09:04:23.100Z,15.90
2019-03-30T09:06:50.476Z,15.50
2019-03-30T09:09:17.965Z,14.63
2019-03-30T09:11:45.255Z,15.40
2019-03-30T09:14:12.568Z,15.00
2019-03-30T09:16:39.850Z,15.80
2019-03-30T09:19:07.188Z,15.60
2019-03-30T09:21:34.511Z,15.37
2019-03-30T09:24:09.390Z,15.33
2019-03-30T09:26:30.848Z,13.37
2019-03-30T09:28:58.156Z,15.30
2019-03-30T09:31:25.428Z,14.07
2019-03-30T09:33:52.722Z,16.13
2019-03-30T09:36:20.029Z,15.27
2019-03-30T09:38:47.309Z,16.83
2019-03-30T09:41:14.581Z,14.83
2019-03-30T09:43:41.902Z,14.77
2019-03-30T09:46:09.168Z,14.53
2019-03-30T09:48:36.449Z,14.30
2019-03-30T09:51:03.815Z,14.70
2019-03-30T09:53:31.096Z,13.97
2019-03-30T09:55:58.380Z,16.00
2019-03-30T09:58:25.884Z,15.00
2019-03-30T10:00:53.214Z,14.10
2019-03-30T10:03:20.568Z,14.43
2019-03-30T10:05:47.942Z,15.20
2019-03-30T10:08:15.227Z,15.40
2019-03-30T10:10:42.495Z,14.63
2019-03-30T10:13:09.816Z,15.40
2019-03-30T10:15:38.820Z,15.40
2019-03-30T10:18:08.017Z,14.83
2019-03-30T10:20:37.156Z,13.33
2019-03-30T10:23:04.456Z,13.20
2019-03-30T10:25:31.733Z,12.70
2019-03-30T10:27:59.119Z,14.90
2019-03-30T10:30:26.391Z,13.80
2019-03-30T10:32:53.673Z,14.20
2019-03-30T10:35:20.972Z,14.60
2019-03-30T10:37:48.244Z,14.20
2019-03-30T10:40:15.518Z,13.93
2019-03-30T10:42:42.833Z,14.37
2019-03-30T10:45:10.781Z,13.60
2019-03-30T10:47:38.053Z,13.80
2019-03-30T10:50:06.129Z,13.27
2019-03-30T10:52:33.406Z,13.03
2019-03-30T10:55:00.677Z,14.33
2019-03-30T10:57:27.972Z,15.30
2019-03-30T10:59:55.284Z,13.73
2019-03-30T11:02:22.629Z,13.37
2019-03-30T11:04:50.000Z,11.90
2019-03-30T11:07:17.276Z,11.57
2019-03-30T11:09:44.559Z,12.60
2019-03-30T11:12:12.022Z,11.13
2019-03-30T11:14:39.356Z,13.17
2019-03-30T11:17:06.635Z,12.63
2019-03-30T11:19:33.940Z,13.70
2019-03-30T11:22:03.269Z,13.23
2019-03-30T11:24:30.276Z,12.57
2019-03-30T11:26:57.649Z,12.97
2019-03-30T11:29:24.933Z,14.60
2019-03-30T11:31:52.297Z,12.83
2019-03-30T11:34:19.611Z,14.17
2019-03-30T11:36:46.888Z,12.70
2019-03-30T11:39:14.161Z,13.00
2019-03-30T11:41:41.478Z,13.03
2019-03-30T11:44:08.756Z,12.70
2019-03-30T11:46:36.033Z,13.80
2019-03-30T11:49:03.373Z,12.63
2019-03-30T11:51:30.649Z,11.93
2019-03-30T11:53:57.996Z,11.70
2019-03-30T11:56:25.396Z,12.20
2019-03-30T11:58:52.683Z,10.50
2019-03-30T12:01:21.779Z,13.00
2019-03-30T12:03:49.072Z,11.63
2019-03-30T12:06:16.416Z,11.97
2019-03-30T12:08:43.714Z,10.70
2019-03-30T12:11:11.086Z,12.13
2019-03-30T12:13:38.366Z,11.17
2019-03-30T12:16:05.635Z,10.87
2019-03-30T12:18:32.945Z,11.00
2019-03-30T12:21:00.273Z,10.93
2019-03-30T12:23:27.560Z,11.80
2019-03-30T12:25:54.876Z,12.87
2019-03-30T12:28:22.196Z,10.57
2019-03-30T12:30:49.469Z,10.20
2019-03-30T12:33:16.812Z,8.90
2019-03-30T12:35:44.169Z,8.80
2019-03-30T12:38:11.504Z,9.30
2019-03-30T12:40:38.957Z,8.10
2019-03-30T12:43:06.248Z,7.63
2019-03-30T12:45:33.600Z,9.23
2019-03-30T12:48:00.995Z,9.10
2019-03-30T12:50:28.256Z,8.23
2019-03-30T12:52:55.607Z,5.83
2019-03-30T12:55:22.932Z,7.27
2019-03-30T12:57:50.214Z,8.10
2019-03-30T13:00:17.564Z,7.23
2019-03-30T13:02:44.888Z,7.23
2019-03-30T13:05:12.190Z,8.10
2019-03-30T13:07:39.472Z,9.40
2019-03-30T13:10:07.160Z,9.20
2019-03-30T13:12:34.502Z,8.63
2019-03-30T13:15:01.769Z,7.67
2019-03-30T13:17:29.237Z,9.40
2019-03-30T13:19:56.517Z,7.60
2019-03-30T13:22:23.836Z,7.70
2019-03-30T13:24:51.168Z,8.40
2019-03-30T13:27:18.495Z,11.00
2019-03-30T13:29:45.789Z,9.77
2019-03-30T13:32:14.322Z,9.40
2019-03-30T13:34:41.644Z,10.27
2019-03-30T13:37:10.463Z,10.30
2019-03-30T13:39:37.781Z,10.70
2019-03-30T13:42:05.075Z,10.47
2019-03-30T13:44:32.386Z,10.37
2019-03-30T13:46:59.771Z,11.70
2019-03-30T13:49:29.611Z,10.50
2019-03-30T13:51:56.062Z,11.20
2019-03-30T13:54:26.508Z,10.50
2019-03-30T13:56:53.800Z,11.50
2019-03-30T13:59:21.082Z,11.00
2019-03-30T14:01:48.481Z,11.30
2019-03-30T14:04:15.765Z,11.10
2019-03-30T14:06:43.057Z,10.63
2019-03-30T14:09:10.357Z,10.53
2019-03-30T14:11:37.694Z,10.33
2019-03-30T14:14:05.109Z,10.47
2019-03-30T14:16:32.513Z,10.37
2019-03-30T14:18:59.818Z,11.03
2019-03-30T14:21:27.144Z,10.53
2019-03-30T14:23:56.047Z,10.37
2019-03-30T14:26:31.184Z,9.97
2019-03-30T14:28:52.332Z,9.77
2019-03-30T14:31:19.717Z,9.43
2019-03-30T14:33:47.009Z,10.30
2019-03-30T14:36:14.381Z,10.27
2019-03-30T14:38:41.709Z,10.87
2019-03-30T14:41:08.984Z,11.10
2019-03-30T14:43:36.273Z,10.80
2019-03-30T14:46:03.739Z,11.50
2019-03-30T14:48:31.064Z,9.97
2019-03-30T14:50:58.338Z,9.30
2019-03-30T14:53:25.806Z,10.53
2019-03-30T14:55:53.340Z,9.83
2019-03-30T14:58:20.933Z,8.83
2019-03-30T15:00:48.357Z,10.03
2019-03-30T15:03:15.668Z,9.83
2019-03-30T15:05:43.013Z,9.17
2019-03-30T15:08:10.315Z,9.37
2019-03-30T15:10:37.593Z,9.90
2019-03-30T15:13:04.883Z,8.70
2019-03-30T15:15:32.294Z,9.90
2019-03-30T15:17:59.566Z,9.63
2019-03-30T15:20:26.846Z,8.43
2019-03-30T15:22:54.174Z,10.43
2019-03-30T15:25:21.613Z,10.97
2019-03-30T15:27:48.960Z,9.43
2019-03-30T15:30:16.348Z,9.33
2019-03-30T15:32:43.691Z,9.10
2019-03-30T15:35:11.081Z,9.20
2019-03-30T15:37:38.475Z,9.13
2019-03-30T15:40:07.132Z,9.97
2019-03-30T15:42:34.552Z,10.90
2019-03-30T15:45:01.957Z,9.67
2019-03-30T15:47:29.249Z,11.10
2019-03-30T15:49:56.597Z,9.93
2019-03-30T15:52:23.909Z,9.30
2019-03-30T15:54:51.227Z,9.40
2019-03-30T15:57:18.674Z,10.57
2019-03-30T15:59:46.076Z,9.20
2019-03-30T16:02:13.406Z,8.73
2019-03-30T16:04:40.777Z,9.53
2019-03-30T16:07:08.124Z,9.50
2019-03-30T16:09:35.485Z,9.70
2019-03-30T16:12:02.877Z,10.17
2019-03-30T16:14:30.261Z,9.90
2019-03-30T16:16:57.601Z,9.63
2019-03-30T16:19:24.875Z,9.83
2019-03-30T16:21:52.206Z,8.77
2019-03-30T16:24:19.492Z,7.30
2019-03-30T16:26:46.882Z,8.40
2019-03-30T16:29:14.457Z,7.73
2019-03-30T16:31:41.834Z,12.00
2019-03-30T16:34:09.192Z,8.80
2019-03-30T16:36:36.616Z,9.23
2019-03-30T16:39:06.101Z,9.93
2019-03-30T16:41:33.373Z,9.40
2019-03-30T16:44:00.749Z,9.47
2019-03-30T16:46:28.022Z,8.10
2019-03-30T16:48:55.282Z,8.93
2019-03-30T16:51:22.612Z,7.90
2019-03-30T16:53:50.001Z,8.90
2019-03-30T16:56:17.297Z,9.87
2019-03-30T16:58:44.707Z,8.07
2019-03-30T17:01:12.044Z,8.63
2019-03-30T17:03:39.333Z,7.73
2019-03-30T17:06:06.626Z,8.33
2019-03-30T17:08:33.921Z,8.07
2019-03-30T17:11:01.268Z,8.00
2019-03-30T17:13:28.593Z,8.37
2019-03-30T17:15:58.564Z,7.90
2019-03-30T17:18:24.946Z,8.57
2019-03-30T17:20:52.269Z,9.20
2019-03-30T17:23:19.554Z,9.03
2019-03-30T17:25:46.837Z,8.37
2019-03-30T17:28:14.315Z,8.60
2019-03-30T17:30:41.598Z,8.47
2019-03-30T17:33:08.949Z,9.17
2019-03-30T17:35:36.257Z,8.20
2019-03-30T17:38:03.638Z,9.30
2019-03-30T17:40:30.911Z,9.07
2019-03-30T17:42:58.288Z,9.30
2019-03-30T17:45:25.565Z,9.50
2019-03-30T17:47:52.836Z,9.00
2019-03-30T17:50:20.341Z,9.13
2019-03-30T17:52:47.686Z,10.10
2019-03-30T17:55:14.992Z,8.90
2019-03-30T17:57:42.364Z,8.87
2019-03-30T18:00:10.895Z,9.80
2019-03-30T18:02:38.229Z,8.90
2019-03-30T18:05:05.969Z,9.20
2019-03-30T18:07:33.245Z,9.37
2019-03-30T18:10:03.209Z,8.80
2019-03-30T18:12:29.561Z,9.07
2019-03-30T18:14:56.981Z,8.70
2019-03-30T18:17:24.253Z,9.03
2019-03-30T18:19:51.635Z,9.67
2019-03-30T18:22:19.032Z,8.20
2019-03-30T18:24:46.344Z,8.00
2019-03-30T18:27:13.651Z,8.90
2019-03-30T18:29:40.926Z,7.90
2019-03-30T18:32:08.364Z,7.90
2019-03-30T18:34:35.866Z,7.40
2019-03-30T18:37:03.380Z,9.00
2019-03-30T18:39:30.769Z,9.60
2019-03-30T18:41:58.168Z,12.97
2019-03-30T18:44:25.815Z,12.20
2019-03-30T18:46:53.201Z,10.30
2019-03-30T18:49:20.608Z,9.10
2019-03-30T18:51:49.361Z,9.43
2019-03-30T18:54:16.788Z,6.73
2019-03-30T18:56:44.118Z,7.23
2019-03-30T18:59:11.480Z,6.43
2019-03-30T19:01:38.754Z,7.50
2019-03-30T19:04:07.830Z,6.70
2019-03-30T19:06:35.267Z,7.67
2019-03-30T19:09:02.598Z,6.60
2019-03-30T19:11:29.934Z,6.50
2019-03-30T19:13:57.219Z,6.10
2019-03-30T19:16:24.568Z,6.20
2019-03-30T19:18:51.971Z,5.57
2019-03-30T19:21:19.257Z,6.07
2019-03-30T19:23:46.521Z,6.10
2019-03-30T19:26:13.832Z,5.80
2019-03-30T19:28:55.273Z,6.70
2019-03-30T19:31:10.193Z,6.27
2019-03-30T19:33:37.650Z,6.37
2019-03-30T19:36:04.955Z,6.33
2019-03-30T19:38:32.446Z,6.73
2019-03-30T19:40:59.830Z,6.93
2019-03-30T19:43:27.296Z,6.53
2019-03-30T19:45:54.587Z,7.00
2019-03-30T19:48:22.303Z,6.57
2019-03-30T19:50:49.666Z,6.40
2019-03-30T19:53:16.989Z,6.77
2019-03-30T19:55:44.292Z,6.37
2019-03-30T19:58:11.629Z,7.40
2019-03-30T20:00:39.205Z,6.80
2019-03-30T20:03:06.686Z,6.37
2019-03-30T20:05:34.038Z,6.23
2019-03-30T20:08:12.029Z,7.27
2019-03-30T20:10:30.360Z,6.90
2019-03-30T20:12:57.669Z,6.87
2019-03-30T20:15:25.512Z,7.20
2019-03-30T20:17:52.927Z,7.87
2019-03-30T20:20:20.314Z,7.50
2019-03-30T20:22:47.609Z,7.53
2019-03-30T20:25:15.012Z,7.60
2019-03-30T20:27:42.382Z,7.40
2019-03-30T20:30:11.081Z,8.43
2019-03-30T20:32:38.504Z,8.10
2019-03-30T20:35:07.260Z,8.23
2019-03-30T20:37:34.701Z,8.30
2019-03-30T20:40:03.768Z,8.40
2019-03-30T20:42:31.047Z,7.93
2019-03-30T20:44:58.465Z,7.90
2019-03-30T20:47:25.829Z,7.83
2019-03-30T20:49:53.109Z,8.20
2019-03-30T20:52:20.406Z,8.30
2019-03-30T20:54:48.714Z,8.73
2019-03-30T20:57:15.996Z,9.13
2019-03-30T20:59:43.578Z,8.43
2019-03-30T21:02:10.990Z,8.70
2019-03-30T21:04:38.340Z,7.77
2019-03-30T21:07:05.683Z,8.83
2019-03-30T21:09:33.070Z,9.10
2019-03-30T21:12:00.422Z,10.30
2019-03-30T21:14:27.721Z,10.50
2019-03-30T21:16:55.139Z,11.30
2019-03-30T21:19:22.502Z,10.37
2019-03-30T21:21:49.788Z,10.33
2019-03-30T21:24:17.089Z,10.00
2019-03-30T21:26:44.392Z,9.10
2019-03-30T21:29:11.717Z,10.67
2019-03-30T21:31:39.099Z,11.03
2019-03-30T21:34:06.372Z,11.10
2019-03-30T21:36:33.681Z,10.30
2019-03-30T21:39:01.072Z,9.93
2019-03-30T21:41:28.360Z,10.73
2019-03-30T21:43:55.708Z,10.77
2019-03-30T21:46:23.125Z,10.53
2019-03-30T21:48:50.475Z,11.33
2019-03-30T21:51:18.761Z,11.80
2019-03-30T21:53:46.090Z,10.90
2019-03-30T21:56:13.361Z,12.00
2019-03-30T21:58:40.736Z,10.40
2019-03-30T22:01:08.163Z,10.70
2019-03-30T22:03:35.547Z,10.63
2019-03-30T22:06:02.915Z,13.07
2019-03-30T22:08:30.281Z,10.93
2019-03-30T22:10:57.569Z,12.90
2019-03-30T22:13:25.177Z,11.93
2019-03-30T22:15:52.553Z,10.93
2019-03-30T22:18:20.168Z,12.07
2019-03-30T22:20:47.444Z,11.40
2019-03-30T22:23:14.761Z,11.00
2019-03-30T22:25:42.041Z,11.90
2019-03-30T22:28:09.344Z,11.23
2019-03-30T22:30:36.664Z,11.07
2019-03-30T22:33:03.966Z,10.43
2019-03-30T22:35:31.343Z,9.83
2019-03-30T22:37:58.729Z,10.87
2019-03-30T22:40:26.086Z,10.70
2019-03-30T22:42:53.441Z,11.37
2019-03-30T22:45:20.736Z,11.77
2019-03-30T22:47:48.044Z,11.03
2019-03-30T22:50:16.253Z,12.20
2019-03-30T22:52:43.585Z,12.40
2019-03-30T22:55:11.046Z,12.07
2019-03-30T22:57:38.386Z,12.30
2019-03-30T23:00:10.842Z,13.00
2019-03-30T23:02:38.454Z,10.80
2019-03-30T23:05:05.880Z,11.47
2019-03-30T23:07:33.258Z,10.57
2019-03-30T23:10:00.525Z,11.30
2019-03-30T23:12:27.804Z,12.10
2019-03-30T23:14:55.095Z,9.77
2019-03-30T23:17:22.369Z,11.90
2019-03-30T23:19:49.662Z,13.60
2019-03-30T23:22:17.028Z,11.00
2019-03-30T23:24:44.327Z,12.67
2019-03-30T23:27:11.601Z,11.07
2019-03-30T23:29:38.901Z,13.00
2019-03-30T23:32:06.186Z,12.53
2019-03-30T23:34:33.464Z,12.00
2019-03-30T23:37:00.764Z,12.43
2019-03-30T23:39:28.048Z,13.33
2019-03-30T23:41:55.320Z,13.10
2019-03-30T23:44:22.621Z,13.10
2019-03-30T23:46:51.353Z,11.93
2019-03-30T23:49:18.672Z,11.80
2019-03-30T23:51:46.056Z,12.23
2019-03-30T23:54:14.872Z,12.33
2019-03-30T23:56:42.145Z,11.63
2019-03-30T23:59:09.477Z,11.60
